sensor_id;sensor_type;location;lat;lon;timestamp;temperature;humidity
39345;DHT22;25061;51.954;6.996;2023-06-04T05:31:20;11.00;99.90
39345;DHT22;25061;51.954;6.996;2023-06-04T05:33:47;11.20;99.90
39345;DHT22;25061;51.954;6.996;2023-06-04T05:36:13;11.30;99.90
39345;DHT22;25061;51.954;6.996;2023-06-04T05:38:39;11.30;99.90
39345;DHT22;25061;51.954;6.996;2023-06-04T05:41:04;11.50;99.90
39345;DHT22;25061;51.954;6.996;2023-06-04T05:43:30;11.50;99.90
39345;DHT22;25061;51.954;6.996;2023-06-04T05:45:56;11.50;99.90
39345;DHT22;25061;51.954;6.996;2023-06-04T05:48:24;11.60;99.90
39345;DHT22;25061;51.954;6.996;2023-06-04T05:50:50;11.60;99.90
39345;DHT22;25061;51.954;6.996;2023-06-04T05:53:15;11.60;99.90
39345;DHT22;25061;51.954;6.996;2023-06-04T05:55:42;11.80;99.90
39345;DHT22;25061;51.954;6.996;2023-06-04T05:58:08;11.80;99.90
39345;DHT22;25061;51.954;6.996;2023-06-04T06:00:34;11.90;99.90
39345;DHT22;25061;51.954;6.996;2023-06-04T06:03:00;12.20;99.90
39345;DHT22;25061;51.954;6.996;2023-06-04T06:05:27;12.30;99.90
39345;DHT22;25061;51.954;6.996;2023-06-04T06:07:52;12.30;99.90
39345;DHT22;25061;51.954;6.996;2023-06-04T06:10:18;12.40;99.90
39345;DHT22;25061;51.954;6.996;2023-06-04T06:12:45;12.60;99.90
39345;DHT22;25061;51.954;6.996;2023-06-04T06:15:11;13.30;99.90
39345;DHT22;25061;51.954;6.996;2023-06-04T06:17:38;13.60;99.90
39345;DHT22;25061;51.954;6.996;2023-06-04T06:20:04;13.70;99.90
39345;DHT22;25061;51.954;6.996;2023-06-04T06:22:33;14.20;99.90
39345;DHT22;25061;51.954;6.996;2023-06-04T06:25:02;14.00;99.90
39345;DHT22;25061;51.954;6.996;2023-06-04T06:27:30;13.90;99.90
39345;DHT22;25061;51.954;6.996;2023-06-04T06:29:56;14.00;99.90
39345;DHT22;25061;51.954;6.996;2023-06-04T06:32:22;14.20;99.90
39345;DHT22;25061;51.954;6.996;2023-06-04T06:34:47;14.30;99.90
39345;DHT22;25061;51.954;6.996;2023-06-04T06:37:13;14.40;99.90
39345;DHT22;25061;51.954;6.996;2023-06-04T06:39:39;14.30;99.90
39345;DHT22;25061;51.954;6.996;2023-06-04T06:42:05;14.50;99.90
39345;DHT22;25061;51.954;6.996;2023-06-04T06:44:32;14.70;99.90
39345;DHT22;25061;51.954;6.996;2023-06-04T06:46:58;14.70;99.90
39345;DHT22;25061;51.954;6.996;2023-06-04T06:49:23;14.80;99.90
39345;DHT22;25061;51.954;6.996;2023-06-04T06:51:49;15.00;99.90
39345;DHT22;25061;51.954;6.996;2023-06-04T06:54:15;15.10;99.90
39345;DHT22;25061;51.954;6.996;2023-06-04T06:56:49;15.10;99.90
39345;DHT22;25061;51.954;6.996;2023-06-04T06:59:16;15.10;99.90
39345;DHT22;25061;51.954;6.996;2023-06-04T07:01:42;15.30;99.90
39345;DHT22;25061;51.954;6.996;2023-06-04T07:04:07;15.30;99.90
39345;DHT22;25061;51.954;6.996;2023-06-04T07:06:34;15.30;99.90
39345;DHT22;25061;51.954;6.996;2023-06-04T07:09:01;15.40;99.90
39345;DHT22;25061;51.954;6.996;2023-06-04T07:11:27;15.50;99.90
39345;DHT22;25061;51.954;6.996;2023-06-04T07:13:52;15.60;99.90
39345;DHT22;25061;51.954;6.996;2023-06-04T07:16:18;15.70;99.90
39345;DHT22;25061;51.954;6.996;2023-06-04T07:18:47;15.80;99.90
39345;DHT22;25061;51.954;6.996;2023-06-04T07:21:14;15.90;99.90
39345;DHT22;25061;51.954;6.996;2023-06-04T07:23:39;16.00;99.90
39345;DHT22;25061;51.954;6.996;2023-06-04T07:26:05;16.10;99.90
39345;DHT22;25061;51.954;6.996;2023-06-04T07:28:30;16.10;99.90
39345;DHT22;25061;51.954;6.996;2023-06-04T07:30:56;16.10;99.90
39345;DHT22;25061;51.954;6.996;2023-06-04T07:33:24;16.10;99.90
39345;DHT22;25061;51.954;6.996;2023-06-04T07:35:49;16.20;99.90
39345;DHT22;25061;51.954;6.996;2023-06-04T07:38:15;16.40;99.90
39345;DHT22;25061;51.954;6.996;2023-06-04T07:40:41;16.50;99.90
39345;DHT22;25061;51.954;6.996;2023-06-04T07:43:07;16.60;99.90
39345;DHT22;25061;51.954;6.996;2023-06-04T07:45:32;16.50;99.90
39345;DHT22;25061;51.954;6.996;2023-06-04T07:47:58;16.70;99.90
39345;DHT22;25061;51.954;6.996;2023-06-04T07:50:24;16.80;99.90
39345;DHT22;25061;51.954;6.996;2023-06-04T07:52:50;16.90;99.90
39345;DHT22;25061;51.954;6.996;2023-06-04T07:55:16;17.00;99.90
39345;DHT22;25061;51.954;6.996;2023-06-04T07:57:41;17.20;99.90
39345;DHT22;25061;51.954;6.996;2023-06-04T08:00:08;17.30;99.90
39345;DHT22;25061;51.954;6.996;2023-06-04T08:02:34;17.40;99.90
39345;DHT22;25061;51.954;6.996;2023-06-04T08:05:00;17.30;99.90
39345;DHT22;25061;51.954;6.996;2023-06-04T08:07:27;17.60;99.90
39345;DHT22;25061;51.954;6.996;2023-06-04T08:09:53;17.60;99.90
39345;DHT22;25061;51.954;6.996;2023-06-04T08:12:20;17.70;99.90
39345;DHT22;25061;51.954;6.996;2023-06-04T08:14:46;17.80;98.60
39345;DHT22;25061;51.954;6.996;2023-06-04T08:17:12;17.90;99.80
39345;DHT22;25061;51.954;6.996;2023-06-04T08:19:38;17.90;97.70
39345;DHT22;25061;51.954;6.996;2023-06-04T08:22:04;17.90;98.60
39345;DHT22;25061;51.954;6.996;2023-06-04T08:24:30;17.90;95.80
39345;DHT22;25061;51.954;6.996;2023-06-04T08:26:55;17.90;96.50
39345;DHT22;25061;51.954;6.996;2023-06-04T08:29:22;17.90;96.90
39345;DHT22;25061;51.954;6.996;2023-06-04T08:31:48;18.00;97.30
39345;DHT22;25061;51.954;6.996;2023-06-04T08:34:14;18.20;96.30
39345;DHT22;25061;51.954;6.996;2023-06-04T08:36:40;18.20;94.70
39345;DHT22;25061;51.954;6.996;2023-06-04T08:39:06;18.20;94.30
39345;DHT22;25061;51.954;6.996;2023-06-04T08:41:45;18.30;94.20
39345;DHT22;25061;51.954;6.996;2023-06-04T08:44:11;18.20;93.10
39345;DHT22;25061;51.954;6.996;2023-06-04T08:46:40;18.30;93.70
39345;DHT22;25061;51.954;6.996;2023-06-04T08:49:07;18.40;93.30
39345;DHT22;25061;51.954;6.996;2023-06-04T08:51:36;18.60;93.30
39345;DHT22;25061;51.954;6.996;2023-06-04T08:54:06;18.60;91.70
39345;DHT22;25061;51.954;6.996;2023-06-04T08:56:33;18.60;90.50
39345;DHT22;25061;51.954;6.996;2023-06-04T08:59:06;18.50;90.90
39345;DHT22;25061;51.954;6.996;2023-06-04T09:01:33;18.80;91.70
39345;DHT22;25061;51.954;6.996;2023-06-04T09:04:01;18.70;89.20
39345;DHT22;25061;51.954;6.996;2023-06-04T09:06:29;18.80;87.90
39345;DHT22;25061;51.954;6.996;2023-06-04T09:08:58;18.90;87.80
39345;DHT22;25061;51.954;6.996;2023-06-04T09:11:35;18.80;86.10
39345;DHT22;25061;51.954;6.996;2023-06-04T09:14:02;19.00;85.20
39345;DHT22;25061;51.954;6.996;2023-06-04T09:16:29;19.00;82.80
39345;DHT22;25061;51.954;6.996;2023-06-04T09:19:02;19.20;84.10
39345;DHT22;25061;51.954;6.996;2023-06-04T09:21:27;19.30;84.20
39345;DHT22;25061;51.954;6.996;2023-06-04T09:23:53;19.40;81.50
39345;DHT22;25061;51.954;6.996;2023-06-04T09:26:19;19.30;79.10
39345;DHT22;25061;51.954;6.996;2023-06-04T09:28:46;19.30;80.80
39345;DHT22;25061;51.954;6.996;2023-06-04T09:31:16;19.70;82.00
39345;DHT22;25061;51.954;6.996;2023-06-04T09:33:44;19.90;87.50
39345;DHT22;25061;51.954;6.996;2023-06-04T09:36:10;19.80;77.90
39345;DHT22;25061;51.954;6.996;2023-06-04T09:38:37;19.90;76.30
39345;DHT22;25061;51.954;6.996;2023-06-04T09:41:03;20.10;78.10
39345;DHT22;25061;51.954;6.996;2023-06-04T09:43:32;20.20;79.60
39345;DHT22;25061;51.954;6.996;2023-06-04T09:46:12;20.20;81.20
39345;DHT22;25061;51.954;6.996;2023-06-04T09:48:39;20.20;78.40
39345;DHT22;25061;51.954;6.996;2023-06-04T09:51:15;20.10;75.10
39345;DHT22;25061;51.954;6.996;2023-06-04T09:53:56;20.50;79.60
39345;DHT22;25061;51.954;6.996;2023-06-04T09:56:22;20.30;79.80
39345;DHT22;25061;51.954;6.996;2023-06-04T09:58:54;20.30;80.10
39345;DHT22;25061;51.954;6.996;2023-06-04T10:01:23;20.10;77.00
39345;DHT22;25061;51.954;6.996;2023-06-04T10:03:51;20.00;76.80
39345;DHT22;25061;51.954;6.996;2023-06-04T10:06:19;20.30;81.10
39345;DHT22;25061;51.954;6.996;2023-06-04T10:08:49;20.20;78.40
39345;DHT22;25061;51.954;6.996;2023-06-04T10:11:22;20.30;81.40
39345;DHT22;25061;51.954;6.996;2023-06-04T10:14:00;20.30;80.40
39345;DHT22;25061;51.954;6.996;2023-06-04T10:16:29;20.50;78.00
39345;DHT22;25061;51.954;6.996;2023-06-04T10:18:57;20.30;78.40
39345;DHT22;25061;51.954;6.996;2023-06-04T10:21:24;20.40;77.60
39345;DHT22;25061;51.954;6.996;2023-06-04T10:23:51;20.40;76.90
39345;DHT22;25061;51.954;6.996;2023-06-04T10:26:17;20.50;78.60
39345;DHT22;25061;51.954;6.996;2023-06-04T10:28:43;20.60;76.10
39345;DHT22;25061;51.954;6.996;2023-06-04T10:31:12;20.80;78.70
39345;DHT22;25061;51.954;6.996;2023-06-04T10:33:38;20.70;75.60
39345;DHT22;25061;51.954;6.996;2023-06-04T10:36:21;20.70;75.10
39345;DHT22;25061;51.954;6.996;2023-06-04T10:38:51;20.50;74.90
39345;DHT22;25061;51.954;6.996;2023-06-04T10:41:19;20.60;74.40
39345;DHT22;25061;51.954;6.996;2023-06-04T10:43:49;20.90;77.70
39345;DHT22;25061;51.954;6.996;2023-06-04T10:46:18;20.90;73.50
39345;DHT22;25061;51.954;6.996;2023-06-04T10:48:52;20.80;72.50
39345;DHT22;25061;51.954;6.996;2023-06-04T10:51:34;20.80;76.30
39345;DHT22;25061;51.954;6.996;2023-06-04T10:54:02;20.70;72.70
39345;DHT22;25061;51.954;6.996;2023-06-04T10:56:30;21.00;76.60
39345;DHT22;25061;51.954;6.996;2023-06-04T10:58:57;20.90;72.70
39345;DHT22;25061;51.954;6.996;2023-06-04T11:01:27;20.80;72.50
39345;DHT22;25061;51.954;6.996;2023-06-04T11:03:57;20.70;70.60
39345;DHT22;25061;51.954;6.996;2023-06-04T11:06:23;20.70;72.90
39345;DHT22;25061;51.954;6.996;2023-06-04T11:09:04;21.00;76.00
39345;DHT22;25061;51.954;6.996;2023-06-04T11:11:34;21.10;75.80
39345;DHT22;25061;51.954;6.996;2023-06-04T11:14:12;21.00;73.70
39345;DHT22;25061;51.954;6.996;2023-06-04T11:16:43;21.00;72.80
39345;DHT22;25061;51.954;6.996;2023-06-04T11:19:08;20.90;72.30
39345;DHT22;25061;51.954;6.996;2023-06-04T11:21:34;21.10;72.20
39345;DHT22;25061;51.954;6.996;2023-06-04T11:24:03;21.20;70.30
39345;DHT22;25061;51.954;6.996;2023-06-04T11:26:33;21.10;72.30
39345;DHT22;25061;51.954;6.996;2023-06-04T11:28:59;21.20;71.20
39345;DHT22;25061;51.954;6.996;2023-06-04T11:31:25;21.30;73.80
39345;DHT22;25061;51.954;6.996;2023-06-04T11:33:50;21.30;70.00
39345;DHT22;25061;51.954;6.996;2023-06-04T11:36:27;21.50;71.80
39345;DHT22;25061;51.954;6.996;2023-06-04T11:41:24;21.10;68.10
39345;DHT22;25061;51.954;6.996;2023-06-04T11:43:50;21.10;68.40
39345;DHT22;25061;51.954;6.996;2023-06-04T11:46:16;21.40;68.40
39345;DHT22;25061;51.954;6.996;2023-06-04T11:48:42;21.50;71.60
39345;DHT22;25061;51.954;6.996;2023-06-04T11:51:08;21.40;67.30
39345;DHT22;25061;51.954;6.996;2023-06-04T11:53:37;21.60;69.20
39345;DHT22;25061;51.954;6.996;2023-06-04T11:56:04;21.50;68.30
39345;DHT22;25061;51.954;6.996;2023-06-04T11:58:30;21.50;70.10
39345;DHT22;25061;51.954;6.996;2023-06-04T12:00:59;21.40;67.60
39345;DHT22;25061;51.954;6.996;2023-06-04T12:03:39;21.50;68.60
39345;DHT22;25061;51.954;6.996;2023-06-04T12:06:19;21.80;71.10
39345;DHT22;25061;51.954;6.996;2023-06-04T12:08:54;21.50;69.40
39345;DHT22;25061;51.954;6.996;2023-06-04T12:11:33;21.60;68.00
39345;DHT22;25061;51.954;6.996;2023-06-04T12:14:16;21.90;69.90
39345;DHT22;25061;51.954;6.996;2023-06-04T12:16:43;21.90;67.70
39345;DHT22;25061;51.954;6.996;2023-06-04T12:19:19;21.60;67.20
39345;DHT22;25061;51.954;6.996;2023-06-04T12:21:45;21.70;68.40
39345;DHT22;25061;51.954;6.996;2023-06-04T12:24:12;21.80;68.60
39345;DHT22;25061;51.954;6.996;2023-06-04T12:26:42;21.90;72.70
39345;DHT22;25061;51.954;6.996;2023-06-04T12:29:17;21.90;67.60
39345;DHT22;25061;51.954;6.996;2023-06-04T12:31:45;21.80;68.50
39345;DHT22;25061;51.954;6.996;2023-06-04T12:34:15;22.00;64.80
39345;DHT22;25061;51.954;6.996;2023-06-04T12:36:40;21.80;66.70
39345;DHT22;25061;51.954;6.996;2023-06-04T12:39:06;21.70;65.90
39345;DHT22;25061;51.954;6.996;2023-06-04T12:41:33;21.70;64.50
39345;DHT22;25061;51.954;6.996;2023-06-04T12:44:00;21.90;64.40
39345;DHT22;25061;51.954;6.996;2023-06-04T12:46:27;22.00;68.10
39345;DHT22;25061;51.954;6.996;2023-06-04T12:48:53;22.40;67.80
39345;DHT22;25061;51.954;6.996;2023-06-04T12:51:19;22.40;65.10
39345;DHT22;25061;51.954;6.996;2023-06-04T12:53:46;22.20;66.60
39345;DHT22;25061;51.954;6.996;2023-06-04T12:56:15;22.20;65.90
39345;DHT22;25061;51.954;6.996;2023-06-04T12:58:41;22.20;63.90
39345;DHT22;25061;51.954;6.996;2023-06-04T13:01:07;22.40;67.50
39345;DHT22;25061;51.954;6.996;2023-06-04T13:03:33;22.40;67.70
39345;DHT22;25061;51.954;6.996;2023-06-04T13:05:59;22.50;66.70
39345;DHT22;25061;51.954;6.996;2023-06-04T13:08:25;22.70;65.30
39345;DHT22;25061;51.954;6.996;2023-06-04T13:10:51;22.80;65.40
39345;DHT22;25061;51.954;6.996;2023-06-04T13:13:18;22.80;65.60
39345;DHT22;25061;51.954;6.996;2023-06-04T13:15:44;23.10;64.80
39345;DHT22;25061;51.954;6.996;2023-06-04T13:18:11;23.30;65.10
39345;DHT22;25061;51.954;6.996;2023-06-04T13:20:37;22.90;63.40
39345;DHT22;25061;51.954;6.996;2023-06-04T13:23:03;22.80;65.50
39345;DHT22;25061;51.954;6.996;2023-06-04T13:25:29;23.00;67.40
39345;DHT22;25061;51.954;6.996;2023-06-04T13:27:56;23.00;64.50
39345;DHT22;25061;51.954;6.996;2023-06-04T13:30:21;22.90;66.60
39345;DHT22;25061;51.954;6.996;2023-06-04T13:32:48;23.10;66.80
39345;DHT22;25061;51.954;6.996;2023-06-04T13:35:14;23.50;65.20
39345;DHT22;25061;51.954;6.996;2023-06-04T13:37:40;23.40;65.80
39345;DHT22;25061;51.954;6.996;2023-06-04T13:40:06;23.90;65.60
39345;DHT22;25061;51.954;6.996;2023-06-04T13:42:33;23.60;65.00
39345;DHT22;25061;51.954;6.996;2023-06-04T13:44:58;23.40;62.90
39345;DHT22;25061;51.954;6.996;2023-06-04T13:47:24;23.40;64.70
39345;DHT22;25061;51.954;6.996;2023-06-04T13:49:50;23.00;66.20
39345;DHT22;25061;51.954;6.996;2023-06-04T13:52:16;23.50;65.40
39345;DHT22;25061;51.954;6.996;2023-06-04T13:54:42;23.60;65.10
39345;DHT22;25061;51.954;6.996;2023-06-04T13:57:08;23.60;65.00
39345;DHT22;25061;51.954;6.996;2023-06-04T13:59:37;23.60;65.40
39345;DHT22;25061;51.954;6.996;2023-06-04T14:02:04;24.30;65.20
39345;DHT22;25061;51.954;6.996;2023-06-04T14:04:29;24.40;63.90
39345;DHT22;25061;51.954;6.996;2023-06-04T14:06:55;24.00;61.80
39345;DHT22;25061;51.954;6.996;2023-06-04T14:09:21;23.90;63.60
39345;DHT22;25061;51.954;6.996;2023-06-04T14:11:48;24.10;61.50
39345;DHT22;25061;51.954;6.996;2023-06-04T14:14:19;24.20;64.70
39345;DHT22;25061;51.954;6.996;2023-06-04T14:16:45;24.20;61.80
39345;DHT22;25061;51.954;6.996;2023-06-04T14:19:11;23.80;62.50
39345;DHT22;25061;51.954;6.996;2023-06-04T14:21:37;23.90;65.30
39345;DHT22;25061;51.954;6.996;2023-06-04T14:24:03;24.00;64.20
39345;DHT22;25061;51.954;6.996;2023-06-04T14:26:28;24.30;65.70
39345;DHT22;25061;51.954;6.996;2023-06-04T14:28:55;24.00;61.50
39345;DHT22;25061;51.954;6.996;2023-06-04T14:31:21;24.00;60.60
39345;DHT22;25061;51.954;6.996;2023-06-04T14:33:47;24.30;62.90
39345;DHT22;25061;51.954;6.996;2023-06-04T14:36:13;24.30;64.90
39345;DHT22;25061;51.954;6.996;2023-06-04T14:38:39;24.80;65.00
39345;DHT22;25061;51.954;6.996;2023-06-04T14:41:05;24.00;61.10
39345;DHT22;25061;51.954;6.996;2023-06-04T14:43:30;23.90;62.50
39345;DHT22;25061;51.954;6.996;2023-06-04T14:45:56;23.60;63.00
39345;DHT22;25061;51.954;6.996;2023-06-04T14:48:23;24.00;62.60
39345;DHT22;25061;51.954;6.996;2023-06-04T14:50:52;24.10;62.40
39345;DHT22;25061;51.954;6.996;2023-06-04T14:53:21;24.40;62.00
39345;DHT22;25061;51.954;6.996;2023-06-04T14:55:49;24.00;61.90
39345;DHT22;25061;51.954;6.996;2023-06-04T14:58:15;24.50;63.00
39345;DHT22;25061;51.954;6.996;2023-06-04T15:00:42;24.20;60.20
39345;DHT22;25061;51.954;6.996;2023-06-04T15:03:09;24.20;61.00
39345;DHT22;25061;51.954;6.996;2023-06-04T15:05:35;23.90;60.90
39345;DHT22;25061;51.954;6.996;2023-06-04T15:08:02;23.90;61.00
39345;DHT22;25061;51.954;6.996;2023-06-04T15:10:28;24.00;62.20
39345;DHT22;25061;51.954;6.996;2023-06-04T15:13:02;24.20;62.20
39345;DHT22;25061;51.954;6.996;2023-06-04T15:15:28;24.60;62.30
39345;DHT22;25061;51.954;6.996;2023-06-04T15:17:53;24.40;60.30
39345;DHT22;25061;51.954;6.996;2023-06-04T15:20:21;24.60;62.20
39345;DHT22;25061;51.954;6.996;2023-06-04T15:22:50;24.70;61.50
39345;DHT22;25061;51.954;6.996;2023-06-04T15:25:16;24.50;62.90
39345;DHT22;25061;51.954;6.996;2023-06-04T15:27:42;24.00;62.20
39345;DHT22;25061;51.954;6.996;2023-06-04T15:30:08;24.40;63.80
39345;DHT22;25061;51.954;6.996;2023-06-04T15:32:34;24.40;67.80
39345;DHT22;25061;51.954;6.996;2023-06-04T15:34:59;24.80;63.70
39345;DHT22;25061;51.954;6.996;2023-06-04T15:37:26;24.70;62.70
39345;DHT22;25061;51.954;6.996;2023-06-04T15:39:52;24.50;60.20
39345;DHT22;25061;51.954;6.996;2023-06-04T15:42:18;24.00;62.30
39345;DHT22;25061;51.954;6.996;2023-06-04T15:44:43;24.40;65.70
39345;DHT22;25061;51.954;6.996;2023-06-04T15:47:10;24.00;61.50
39345;DHT22;25061;51.954;6.996;2023-06-04T15:49:35;23.90;62.80
39345;DHT22;25061;51.954;6.996;2023-06-04T15:52:01;24.30;64.00
39345;DHT22;25061;51.954;6.996;2023-06-04T15:54:28;24.40;62.30
39345;DHT22;25061;51.954;6.996;2023-06-04T15:56:54;24.00;61.80
39345;DHT22;25061;51.954;6.996;2023-06-04T15:59:19;24.10;64.80
39345;DHT22;25061;51.954;6.996;2023-06-04T16:01:45;24.00;62.30
39345;DHT22;25061;51.954;6.996;2023-06-04T16:04:11;23.90;62.50
39345;DHT22;25061;51.954;6.996;2023-06-04T16:06:37;24.20;64.40
39345;DHT22;25061;51.954;6.996;2023-06-04T16:09:03;24.30;63.60
39345;DHT22;25061;51.954;6.996;2023-06-04T16:11:29;23.90;63.80
39345;DHT22;25061;51.954;6.996;2023-06-04T16:13:55;23.70;63.90
39345;DHT22;25061;51.954;6.996;2023-06-04T16:16:21;23.80;64.00
39345;DHT22;25061;51.954;6.996;2023-06-04T16:18:47;23.70;64.70
39345;DHT22;25061;51.954;6.996;2023-06-04T16:21:14;23.70;63.60
39345;DHT22;25061;51.954;6.996;2023-06-04T16:23:40;23.80;63.60
39345;DHT22;25061;51.954;6.996;2023-06-04T16:26:06;23.80;64.00
39345;DHT22;25061;51.954;6.996;2023-06-04T16:28:32;23.90;64.40
39345;DHT22;25061;51.954;6.996;2023-06-04T16:30:58;23.40;62.10
39345;DHT22;25061;51.954;6.996;2023-06-04T16:33:24;23.40;62.90
39345;DHT22;25061;51.954;6.996;2023-06-04T16:35:49;23.30;63.00
39345;DHT22;25061;51.954;6.996;2023-06-04T16:38:15;23.60;63.70
39345;DHT22;25061;51.954;6.996;2023-06-04T16:40:42;23.40;63.80
39345;DHT22;25061;51.954;6.996;2023-06-04T16:43:07;23.50;64.20
39345;DHT22;25061;51.954;6.996;2023-06-04T16:45:33;23.50;64.10
39345;DHT22;25061;51.954;6.996;2023-06-04T16:47:59;23.30;62.70
39345;DHT22;25061;51.954;6.996;2023-06-04T16:50:25;23.40;63.20
39345;DHT22;25061;51.954;6.996;2023-06-04T16:52:50;23.30;63.20
39345;DHT22;25061;51.954;6.996;2023-06-04T16:55:16;22.90;63.80
39345;DHT22;25061;51.954;6.996;2023-06-04T16:57:42;22.90;64.60
39345;DHT22;25061;51.954;6.996;2023-06-04T17:00:08;23.20;64.00
39345;DHT22;25061;51.954;6.996;2023-06-04T17:02:34;23.00;64.30
39345;DHT22;25061;51.954;6.996;2023-06-04T17:05:00;23.10;65.50
39345;DHT22;25061;51.954;6.996;2023-06-04T17:07:27;23.00;64.10
39345;DHT22;25061;51.954;6.996;2023-06-04T17:09:53;22.90;64.80
39345;DHT22;25061;51.954;6.996;2023-06-04T17:12:18;23.20;65.50
39345;DHT22;25061;51.954;6.996;2023-06-04T17:14:44;23.10;67.00
39345;DHT22;25061;51.954;6.996;2023-06-04T17:17:13;23.00;66.00
39345;DHT22;25061;51.954;6.996;2023-06-04T17:19:38;23.20;66.50
39345;DHT22;25061;51.954;6.996;2023-06-04T17:22:06;23.10;67.60
39345;DHT22;25061;51.954;6.996;2023-06-04T17:24:32;23.00;65.50
39345;DHT22;25061;51.954;6.996;2023-06-04T17:26:57;23.00;65.80
39345;DHT22;25061;51.954;6.996;2023-06-04T17:29:23;23.00;67.40
39345;DHT22;25061;51.954;6.996;2023-06-04T17:31:49;23.10;67.20
39345;DHT22;25061;51.954;6.996;2023-06-04T17:34:16;23.20;67.30
39345;DHT22;25061;51.954;6.996;2023-06-04T17:36:42;22.80;65.70
39345;DHT22;25061;51.954;6.996;2023-06-04T17:39:10;22.50;64.90
39345;DHT22;25061;51.954;6.996;2023-06-04T17:41:36;22.50;65.50
39345;DHT22;25061;51.954;6.996;2023-06-04T17:44:02;22.70;67.10
39345;DHT22;25061;51.954;6.996;2023-06-04T17:46:27;22.30;68.00
39345;DHT22;25061;51.954;6.996;2023-06-04T17:48:53;22.10;68.80
39345;DHT22;25061;51.954;6.996;2023-06-04T17:51:18;22.10;69.40
39345;DHT22;25061;51.954;6.996;2023-06-04T17:53:44;22.10;70.10
39345;DHT22;25061;51.954;6.996;2023-06-04T17:56:10;21.90;70.50
39345;DHT22;25061;51.954;6.996;2023-06-04T17:58:35;21.80;70.70
39345;DHT22;25061;51.954;6.996;2023-06-04T18:01:01;21.90;73.40
39345;DHT22;25061;51.954;6.996;2023-06-04T18:03:27;21.70;71.70
39345;DHT22;25061;51.954;6.996;2023-06-04T18:05:53;21.70;74.20
39345;DHT22;25061;51.954;6.996;2023-06-04T18:08:19;21.50;72.80
39345;DHT22;25061;51.954;6.996;2023-06-04T18:10:44;21.50;75.00
39345;DHT22;25061;51.954;6.996;2023-06-04T18:13:11;21.40;71.90
39345;DHT22;25061;51.954;6.996;2023-06-04T18:15:37;21.50;73.10
39345;DHT22;25061;51.954;6.996;2023-06-04T18:18:03;21.30;72.90
39345;DHT22;25061;51.954;6.996;2023-06-04T18:20:29;21.20;73.80
39345;DHT22;25061;51.954;6.996;2023-06-04T18:22:55;21.20;74.30
39345;DHT22;25061;51.954;6.996;2023-06-04T18:25:21;21.10;75.30
39345;DHT22;25061;51.954;6.996;2023-06-04T18:27:47;21.10;73.40
39345;DHT22;25061;51.954;6.996;2023-06-04T18:30:13;21.00;74.50
39345;DHT22;25061;51.954;6.996;2023-06-04T18:32:41;20.90;75.30
39345;DHT22;25061;51.954;6.996;2023-06-04T18:35:07;20.90;75.20
39345;DHT22;25061;51.954;6.996;2023-06-04T18:37:32;20.90;75.60
39345;DHT22;25061;51.954;6.996;2023-06-04T18:39:58;20.90;75.20
39345;DHT22;25061;51.954;6.996;2023-06-04T18:42:24;20.80;74.30
39345;DHT22;25061;51.954;6.996;2023-06-04T18:44:49;20.80;75.70
39345;DHT22;25061;51.954;6.996;2023-06-04T18:47:15;20.70;75.50
39345;DHT22;25061;51.954;6.996;2023-06-04T18:49:40;20.70;74.60
39345;DHT22;25061;51.954;6.996;2023-06-04T18:52:06;20.60;77.30
39345;DHT22;25061;51.954;6.996;2023-06-04T18:54:32;20.60;75.60
39345;DHT22;25061;51.954;6.996;2023-06-04T18:56:58;20.40;75.30
39345;DHT22;25061;51.954;6.996;2023-06-04T18:59:24;20.40;75.00
39345;DHT22;25061;51.954;6.996;2023-06-04T19:01:49;20.30;76.30
39345;DHT22;25061;51.954;6.996;2023-06-04T19:04:15;20.30;76.10
39345;DHT22;25061;51.954;6.996;2023-06-04T19:06:41;20.30;77.60
39345;DHT22;25061;51.954;6.996;2023-06-04T19:09:07;20.20;77.90
39345;DHT22;25061;51.954;6.996;2023-06-04T19:11:33;20.10;77.40
39345;DHT22;25061;51.954;6.996;2023-06-04T19:13:59;20.00;79.50
39345;DHT22;25061;51.954;6.996;2023-06-04T19:16:25;19.90;78.30
39345;DHT22;25061;51.954;6.996;2023-06-04T19:18:50;19.90;80.80
39345;DHT22;25061;51.954;6.996;2023-06-04T19:21:17;19.80;83.60
39345;DHT22;25061;51.954;6.996;2023-06-04T19:23:43;19.70;85.90
39345;DHT22;25061;51.954;6.996;2023-06-04T19:26:09;19.60;87.80
39345;DHT22;25061;51.954;6.996;2023-06-04T19:28:35;19.60;89.40
39345;DHT22;25061;51.954;6.996;2023-06-04T19:31:01;19.50;90.50
39345;DHT22;25061;51.954;6.996;2023-06-04T19:33:27;19.40;91.60
39345;DHT22;25061;51.954;6.996;2023-06-04T19:35:57;19.20;92.40
39345;DHT22;25061;51.954;6.996;2023-06-04T19:38:23;19.20;92.40
39345;DHT22;25061;51.954;6.996;2023-06-04T19:40:49;19.20;92.90
39345;DHT22;25061;51.954;6.996;2023-06-04T19:43:14;19.10;93.20
39345;DHT22;25061;51.954;6.996;2023-06-04T19:45:41;19.00;93.60
39345;DHT22;25061;51.954;6.996;2023-06-04T19:48:09;19.00;93.80
39345;DHT22;25061;51.954;6.996;2023-06-04T19:50:35;18.90;94.50
39345;DHT22;25061;51.954;6.996;2023-06-04T19:53:00;18.70;95.00
39345;DHT22;25061;51.954;6.996;2023-06-04T19:55:26;18.70;95.40
39345;DHT22;25061;51.954;6.996;2023-06-04T19:57:52;18.60;95.60
39345;DHT22;25061;51.954;6.996;2023-06-04T20:00:18;18.50;96.10
39345;DHT22;25061;51.954;6.996;2023-06-04T20:02:43;18.30;96.80
39345;DHT22;25061;51.954;6.996;2023-06-04T20:05:10;18.30;97.30
39345;DHT22;25061;51.954;6.996;2023-06-04T20:07:36;18.20;97.50
39345;DHT22;25061;51.954;6.996;2023-06-04T20:10:02;18.10;97.90
39345;DHT22;25061;51.954;6.996;2023-06-04T20:12:27;18.00;98.30
39345;DHT22;25061;51.954;6.996;2023-06-04T20:14:54;18.00;98.50
39345;DHT22;25061;51.954;6.996;2023-06-04T20:17:22;17.90;98.70
39345;DHT22;25061;51.954;6.996;2023-06-04T20:19:48;17.80;99.40
39345;DHT22;25061;51.954;6.996;2023-06-04T20:22:14;17.80;99.40
39345;DHT22;25061;51.954;6.996;2023-06-04T20:24:41;17.80;99.70
39345;DHT22;25061;51.954;6.996;2023-06-04T20:27:10;17.70;99.90
39345;DHT22;25061;51.954;6.996;2023-06-04T20:29:38;17.60;99.90
39345;DHT22;25061;51.954;6.996;2023-06-04T20:32:06;17.60;99.90
39345;DHT22;25061;51.954;6.996;2023-06-04T20:34:31;17.50;99.90
39345;DHT22;25061;51.954;6.996;2023-06-04T20:36:58;17.40;99.90
39345;DHT22;25061;51.954;6.996;2023-06-04T20:39:28;17.30;99.90
39345;DHT22;25061;51.954;6.996;2023-06-04T20:41:56;17.30;99.90
39345;DHT22;25061;51.954;6.996;2023-06-04T20:44:22;17.30;99.90
39345;DHT22;25061;51.954;6.996;2023-06-04T20:46:49;17.20;99.90
39345;DHT22;25061;51.954;6.996;2023-06-04T20:49:14;17.10;99.90
39345;DHT22;25061;51.954;6.996;2023-06-04T20:51:40;17.10;99.90
39345;DHT22;25061;51.954;6.996;2023-06-04T20:54:06;17.10;99.90
39345;DHT22;25061;51.954;6.996;2023-06-04T20:56:31;17.00;99.90
39345;DHT22;25061;51.954;6.996;2023-06-04T20:58:58;17.00;99.90
39345;DHT22;25061;51.954;6.996;2023-06-04T21:01:23;17.00;99.90